Time;durP1;ratioP1;P1;durP2;ratioP2;P2;SDS_P1;SDS_P2;PMS_P1;PMS_P2;Temp;Humidity;BMP_temperature;BMP_pressure;BME280_temperature;BME280_humidity;BME280_pressure;Samples;Min_cycle;Max_cycle;Signal;HPM_P1;HPM_P2
2021/12/04 00:01:49;;;;;;;1.08;0.40;;;;;;;-148.56;100.00;61375.16;5037696;28;20048;-33
2021/12/04 00:05:14;;;;;;;1.10;0.68;;;;;;;-148.56;100.00;61375.16;5030333;28;20029;-32
2021/12/04 00:08:43;;;;;;;1.65;0.50;;;;;;;-148.56;100.00;61375.16;5041804;28;20585;-33
2021/12/04 00:12:07;;;;;;;0.90;0.50;;;;;;;-148.56;100.00;61375.16;5046265;28;20537;-31
2021/12/04 00:15:32;;;;;;;0.95;0.32;;;;;;;-148.56;100.00;61375.16;5046997;28;20566;-32
2021/12/04 00:18:56;;;;;;;2.92;0.40;;;;;;;-148.56;100.00;61375.16;5045027;28;20029;-34
2021/12/04 00:22:20;;;;;;;1.58;0.50;;;;;;;-148.56;100.00;61375.16;5046134;28;20033;-31
2021/12/04 00:25:44;;;;;;;1.48;0.52;;;;;;;-148.56;100.00;61375.16;5045125;28;20036;-32
2021/12/04 00:29:07;;;;;;;0.63;0.40;;;;;;;-148.56;100.00;61375.16;5043719;28;20659;-29
2021/12/04 00:32:33;;;;;;;1.10;0.60;;;;;;;-148.56;100.00;61375.16;5045779;28;20123;-31
2021/12/04 00:36:02;;;;;;;3.28;0.50;;;;;;;-148.56;100.00;61375.16;5047038;28;20119;-32
2021/12/04 00:50:21;;;;;;;2.53;0.63;;;;;;;-148.56;100.00;61375.16;5043415;28;22818;-30
2021/12/04 00:53:47;;;;;;;1.73;0.52;;;;;;;-148.56;100.00;61375.16;5044273;28;20422;-25
2021/12/04 00:57:10;;;;;;;2.65;0.60;;;;;;;-148.56;100.00;61375.16;5041205;28;20033;-33
2021/12/04 01:00:34;;;;;;;0.47;0.30;;;;;;;-148.56;100.00;61375.16;5040884;28;20543;-32
2021/12/04 01:03:58;;;;;;;1.45;0.47;;;;;;;-148.56;100.00;61375.16;5043346;28;20170;-33
2021/12/04 01:07:24;;;;;;;0.65;0.45;;;;;;;-148.56;100.00;61375.16;5041572;28;20133;-32
2021/12/04 01:10:48;;;;;;;0.60;0.40;;;;;;;-148.56;100.00;61375.16;5042024;28;20586;-29
2021/12/04 01:14:13;;;;;;;0.30;0.30;;;;;;;-148.56;100.00;61375.16;5044057;28;20123;-35
2021/12/04 01:17:37;;;;;;;3.85;0.50;;;;;;;-148.56;100.00;61375.16;5036376;28;20033;-34
2021/12/04 01:21:02;;;;;;;0.77;0.43;;;;;;;-148.56;100.00;61375.16;5038061;28;20280;-35
2021/12/04 01:24:25;;;;;;;10.15;1.40;;;;;;;-148.56;100.00;61375.16;5039593;28;20028;-33
2021/12/04 01:27:49;;;;;;;2.95;0.68;;;;;;;-148.56;100.00;61375.16;5038068;28;20035;-32
2021/12/04 01:31:13;;;;;;;3.90;1.13;;;;;;;-148.56;100.00;61375.16;5036454;28;20025;-34
2021/12/04 01:34:37;;;;;;;7.82;0.90;;;;;;;-148.56;100.00;61375.16;5036426;28;20122;-28
2021/12/04 01:38:01;;;;;;;3.90;0.75;;;;;;;-148.56;100.00;61375.16;5039948;28;20051;-31
2021/12/04 01:41:25;;;;;;;5.32;1.30;;;;;;;-148.56;100.00;61375.16;5036570;28;20417;-32
2021/12/04 01:44:49;;;;;;;2.85;1.00;;;;;;;-148.56;100.00;61375.16;5039021;28;20151;-30
2021/12/04 01:48:14;;;;;;;6.20;1.30;;;;;;;-148.56;100.00;61375.16;5037781;28;20122;-29
2021/12/04 01:51:38;;;;;;;1.83;1.20;;;;;;;-148.56;100.00;61375.16;5035553;28;20032;-32
2021/12/04 01:55:03;;;;;;;25.95;2.10;;;;;;;-148.56;100.00;61375.16;5039836;28;20039;-32
2021/12/04 01:58:27;;;;;;;12.00;1.67;;;;;;;-148.56;100.00;61375.16;5040714;28;20426;-31
2021/12/04 02:01:51;;;;;;;18.17;2.10;;;;;;;-148.56;100.00;61375.16;5036147;28;20031;-33
2021/12/04 02:05:15;;;;;;;6.25;1.70;;;;;;;-148.56;100.00;61375.16;5038065;28;20028;-32
2021/12/04 02:08:39;;;;;;;9.32;1.90;;;;;;;-148.56;100.00;61375.16;5041825;28;20036;-31
2021/12/04 02:12:05;;;;;;;5.78;2.42;;;;;;;-148.56;100.00;61375.16;5041492;28;20036;-32
2021/12/04 02:15:29;;;;;;;8.73;2.70;;;;;;;-148.56;100.00;61375.16;5040733;28;20028;-34
2021/12/04 02:18:53;;;;;;;6.72;2.40;;;;;;;-148.56;100.00;61375.16;5040044;28;20056;-29
2021/12/04 02:22:17;;;;;;;20.85;3.10;;;;;;;-148.56;100.00;61375.16;5042460;28;20028;-35
2021/12/04 02:25:41;;;;;;;25.75;4.85;;;;;;;-148.56;100.00;61375.16;5045271;28;20541;-35
2021/12/04 02:29:06;;;;;;;31.05;5.97;;;;;;;-148.56;100.00;61375.16;5041006;28;21051;-31
2021/12/04 02:32:31;;;;;;;31.20;5.97;;;;;;;-148.56;100.00;61375.16;5041708;28;20107;-31
2021/12/04 02:35:55;;;;;;;20.92;4.47;;;;;;;-148.56;100.00;61375.16;5045157;28;20040;-32
2021/12/04 02:39:26;;;;;;;18.08;4.15;;;;;;;-148.56;100.00;61375.16;5046609;28;20032;-30
2021/12/04 02:42:50;;;;;;;19.63;4.28;;;;;;;-148.56;100.00;61375.16;5044319;28;20040;-30
2021/12/04 02:46:14;;;;;;;14.95;3.90;;;;;;;-148.56;100.00;61375.16;5042190;28;20079;-31
2021/12/04 02:49:38;;;;;;;23.40;4.35;;;;;;;-148.56;100.00;61375.16;5042170;28;20105;-31
2021/12/04 02:53:05;;;;;;;12.40;3.55;;;;;;;-148.56;100.00;61375.16;5046634;28;20037;-29
2021/12/04 02:56:29;;;;;;;20.88;3.42;;;;;;;-148.56;100.00;61375.16;5045137;28;20025;-31
2021/12/04 02:59:54;;;;;;;16.88;3.80;;;;;;;-148.56;100.00;61375.16;5044669;28;20064;-35
2021/12/04 03:03:19;;;;;;;13.43;3.83;;;;;;;-148.56;100.00;61375.16;5043040;28;20031;-29
2021/12/04 03:06:45;;;;;;;23.63;3.97;;;;;;;-148.56;100.00;61375.16;5044585;28;20549;-28
2021/12/04 03:10:09;;;;;;;10.98;3.10;;;;;;;-148.56;100.00;61375.16;5044020;28;20024;-32
2021/12/04 03:13:34;;;;;;;13.70;3.22;;;;;;;-148.56;100.00;61375.16;5044731;28;20036;-30
2021/12/04 03:16:58;;;;;;;9.25;3.00;;;;;;;-148.56;100.00;61375.16;5042853;28;20032;-32
2021/12/04 03:20:22;;;;;;;9.98;3.45;;;;;;;-148.56;100.00;61375.16;5044935;28;20040;-30
2021/12/04 03:24:20;;;;;;;11.75;2.72;;;;;;;-148.56;100.00;61375.16;5044076;28;20115;-26
2021/12/04 03:27:38;;;;;;;10.15;3.20;;;;;;;-148.56;100.00;61375.16;5039375;28;20854;-32
2021/12/04 03:31:13;;;;;;;9.93;2.97;;;;;;;-148.56;100.00;61375.16;5042040;28;20028;-31
2021/12/04 03:42:02;;;;;;;9.38;3.42;;;;;;;-148.56;100.00;61375.16;5048150;28;20509;-30
2021/12/04 03:45:26;;;;;;;12.63;2.67;;;;;;;-148.56;100.00;61375.16;5047818;28;20032;-31
2021/12/04 03:48:50;;;;;;;7.55;2.80;;;;;;;-148.56;100.00;61375.16;5046090;28;20032;-33
2021/12/04 03:52:14;;;;;;;12.40;3.00;;;;;;;-148.56;100.00;61375.16;5047676;28;20036;-30
2021/12/04 03:55:39;;;;;;;8.18;2.78;;;;;;;-148.56;100.00;61375.16;5047399;28;20036;-33
2021/12/04 03:59:03;;;;;;;7.25;2.53;;;;;;;-148.56;100.00;61375.16;5048317;28;20116;-32
2021/12/04 04:02:27;;;;;;;9.80;2.47;;;;;;;-148.56;100.00;61375.16;5047028;28;20033;-31
2021/12/04 04:05:51;;;;;;;6.45;2.60;;;;;;;-148.56;100.00;61375.16;5048187;28;20534;-32
2021/12/04 04:09:15;;;;;;;9.75;3.03;;;;;;;-148.56;100.00;61375.16;5049079;28;20162;-34
2021/12/04 04:12:38;;;;;;;8.63;2.42;;;;;;;-148.56;100.00;61375.16;5046615;28;20024;-29
2021/12/04 04:16:03;;;;;;;9.48;3.08;;;;;;;-148.56;100.00;61375.16;5047783;28;20020;-33
2021/12/04 04:19:27;;;;;;;6.40;2.58;;;;;;;-148.56;100.00;61375.16;5047155;28;20090;-30
2021/12/04 04:22:51;;;;;;;6.55;2.28;;;;;;;-148.56;100.00;61375.16;5047102;28;20034;-32
2021/12/04 04:26:15;;;;;;;6.57;2.42;;;;;;;-148.56;100.00;61375.16;5047662;28;20024;-30
2021/12/04 04:29:39;;;;;;;8.95;2.38;;;;;;;-148.56;100.00;61375.16;5047055;28;20033;-31
2021/12/04 04:33:04;;;;;;;4.72;2.22;;;;;;;-148.56;100.00;61375.16;5045012;28;20506;-30
2021/12/04 04:40:23;;;;;;;4.97;2.08;;;;;;;-148.56;100.00;61375.16;5047734;28;20063;-29
2021/12/04 04:58:54;;;;;;;5.30;2.03;;;;;;;-148.56;100.00;61375.16;5048412;28;20070;-30
2021/12/04 05:13:22;;;;;;;4.22;1.80;;;;;;;-148.56;100.00;61375.16;5044236;28;20040;-33
2021/12/04 05:16:52;;;;;;;4.97;1.65;;;;;;;-148.56;100.00;61375.16;5044300;28;20037;-30
2021/12/04 05:20:21;;;;;;;4.65;1.77;;;;;;;-148.56;100.00;61375.16;5047626;28;20140;-35
2021/12/04 05:23:50;;;;;;;4.53;1.85;;;;;;;-148.56;100.00;61375.16;5047359;28;20053;-31
2021/12/04 05:27:19;;;;;;;3.65;1.50;;;;;;;-148.56;100.00;61375.16;5044994;28;20499;-33
2021/12/04 05:30:42;;;;;;;3.80;1.63;;;;;;;-148.56;100.00;61375.16;5046142;28;20036;-34
2021/12/04 05:34:06;;;;;;;2.97;1.40;;;;;;;-148.56;100.00;61375.16;5047520;28;20031;-34
2021/12/04 05:37:30;;;;;;;3.95;1.83;;;;;;;-148.56;100.00;61375.16;5045999;28;20593;-37
2021/12/04 05:40:54;;;;;;;2.22;1.50;;;;;;;-148.56;100.00;61375.16;5045477;28;20028;-31
2021/12/04 05:44:21;;;;;;;3.90;1.55;;;;;;;-148.56;100.00;61375.16;5043727;28;20024;-28
2021/12/04 05:48:08;;;;;;;2.33;1.23;;;;;;;-148.56;100.00;61375.16;5043511;28;20398;-29
2021/12/04 05:55:17;;;;;;;5.00;1.70;;;;;;;-148.56;100.00;61375.16;5045013;28;20454;-26
2021/12/04 05:58:40;;;;;;;3.75;1.30;;;;;;;-148.56;100.00;61375.16;5044579;28;20032;-32
2021/12/04 06:02:04;;;;;;;4.10;1.50;;;;;;;-148.56;100.00;61375.16;5045619;28;20093;-33
2021/12/04 06:05:29;;;;;;;3.40;1.50;;;;;;;-148.56;100.00;61375.16;5043178;28;20060;-32
2021/12/04 06:08:53;;;;;;;3.75;1.60;;;;;;;-148.56;100.00;61375.16;5047973;28;20029;-32
2021/12/04 06:12:17;;;;;;;3.30;1.33;;;;;;;-148.56;100.00;61375.16;5045852;28;20039;-28
2021/12/04 06:15:41;;;;;;;4.40;1.40;;;;;;;-148.56;100.00;61375.16;5043844;28;20843;-28
2021/12/04 06:19:11;;;;;;;2.03;1.08;;;;;;;-148.56;100.00;61375.16;5051474;28;20052;-30
2021/12/04 06:22:38;;;;;;;3.10;1.27;;;;;;;-148.56;100.00;61375.16;5042709;28;20139;-33
2021/12/04 06:26:22;;;;;;;2.97;1.35;;;;;;;-148.56;100.00;61375.16;5043830;28;20567;-35
2021/12/04 06:29:46;;;;;;;2.55;1.30;;;;;;;-148.56;100.00;61375.16;5044549;28;20037;-28
2021/12/04 06:33:10;;;;;;;3.05;1.23;;;;;;;-148.56;100.00;61375.16;5044835;28;20028;-29
2021/12/04 06:36:35;;;;;;;2.63;1.00;;;;;;;-148.56;100.00;61375.16;5047882;28;20056;-28
2021/12/04 06:39:59;;;;;;;2.35;1.00;;;;;;;-148.56;100.00;61375.16;5045057;28;20070;-30
2021/12/04 06:43:25;;;;;;;2.35;1.05;;;;;;;-148.56;100.00;61375.16;5044108;28;20039;-32
2021/12/04 06:46:49;;;;;;;1.58;0.82;;;;;;;-148.56;100.00;61375.16;5043283;28;20454;-27
2021/12/04 06:50:29;;;;;;;3.40;1.00;;;;;;;-148.56;100.00;61375.16;5045014;28;20117;-30
2021/12/04 06:57:17;;;;;;;3.13;0.95;;;;;;;-148.56;100.00;61375.16;5041780;28;20399;-31
2021/12/04 07:00:41;;;;;;;2.45;1.30;;;;;;;-148.56;100.00;61375.16;5044818;28;20059;-34
2021/12/04 07:04:05;;;;;;;2.40;1.15;;;;;;;-148.56;100.00;61375.16;5046366;28;20056;-31
2021/12/04 07:07:29;;;;;;;0.80;0.70;;;;;;;-148.56;100.00;61375.16;5048810;28;20032;-32
2021/12/04 07:10:53;;;;;;;1.52;0.90;;;;;;;-148.56;100.00;61375.16;5048442;28;20791;-31
2021/12/04 07:14:17;;;;;;;1.83;1.02;;;;;;;-148.56;100.00;61375.16;5049491;28;20029;-30
2021/12/04 07:17:41;;;;;;;2.03;1.00;;;;;;;-148.56;100.00;61375.16;5047787;28;20484;-29
2021/12/04 07:21:05;;;;;;;1.80;0.82;;;;;;;-148.56;100.00;61375.16;5047576;28;20184;-29
2021/12/04 07:24:31;;;;;;;3.72;1.10;;;;;;;-148.56;100.00;61375.16;5049614;28;20029;-32
2021/12/04 07:27:55;;;;;;;3.08;1.40;;;;;;;-148.56;100.00;61375.16;5046792;28;20094;-30
2021/12/04 07:31:19;;;;;;;2.13;1.10;;;;;;;-148.56;100.00;61375.16;5046463;28;20224;-30
2021/12/04 07:34:43;;;;;;;1.63;0.80;;;;;;;-148.56;100.00;61375.16;5047559;28;20055;-34
2021/12/04 07:38:07;;;;;;;2.60;0.90;;;;;;;-148.56;100.00;61375.16;5046488;28;20029;-30
2021/12/04 07:41:31;;;;;;;1.83;1.05;;;;;;;-148.56;100.00;61375.16;5046978;28;20714;-35
2021/12/04 07:44:55;;;;;;;2.55;1.05;;;;;;;-148.56;100.00;61375.16;5051052;28;20048;-31
2021/12/04 07:48:18;;;;;;;1.85;1.02;;;;;;;-148.56;100.00;61375.16;5042655;28;20451;-32
2021/12/04 07:51:44;;;;;;;2.70;0.98;;;;;;;-148.56;100.00;61375.16;5047799;28;20032;-33
2021/12/04 07:55:08;;;;;;;1.65;1.00;;;;;;;-148.56;100.00;61375.16;5049808;28;20052;-32
2021/12/04 07:58:32;;;;;;;1.55;0.82;;;;;;;-148.56;100.00;61375.16;5044492;28;20032;-35
2021/12/04 08:01:56;;;;;;;3.05;0.95;;;;;;;-148.56;100.00;61375.16;5048512;28;20040;-29
2021/12/04 08:05:20;;;;;;;3.15;0.90;;;;;;;-148.56;100.00;61375.16;5046013;28;20525;-34
2021/12/04 08:08:44;;;;;;;2.45;0.90;;;;;;;-148.56;100.00;61375.16;5044740;28;20037;-35
2021/12/04 08:12:10;;;;;;;2.30;0.80;;;;;;;-148.56;100.00;61375.16;5047896;28;20040;-30
2021/12/04 08:15:35;;;;;;;1.95;1.00;;;;;;;-148.56;100.00;61375.16;5046564;28;20044;-29
2021/12/04 08:18:59;;;;;;;1.20;0.70;;;;;;;-148.56;100.00;61375.16;5047347;28;20115;-33
2021/12/04 08:22:23;;;;;;;1.90;0.73;;;;;;;-148.56;100.00;61375.16;5053105;28;20044;-31
2021/12/04 08:25:47;;;;;;;2.65;0.80;;;;;;;-148.56;100.00;61375.16;5047608;28;20033;-33
2021/12/04 08:29:11;;;;;;;1.50;0.80;;;;;;;-148.56;100.00;61375.16;5047087;28;20024;-33
2021/12/04 08:32:35;;;;;;;2.53;1.00;;;;;;;-148.56;100.00;61375.16;5048913;28;20044;-32
2021/12/04 08:36:00;;;;;;;2.55;0.88;;;;;;;-148.56;100.00;61375.16;5048582;28;20120;-33
2021/12/04 08:39:24;;;;;;;1.55;0.82;;;;;;;-148.56;100.00;61375.16;5045162;28;20029;-30
2021/12/04 08:42:48;;;;;;;1.77;0.80;;;;;;;-148.56;100.00;61375.16;5048211;28;20032;-29
2021/12/04 08:46:14;;;;;;;1.45;0.80;;;;;;;-148.56;100.00;61375.16;5045562;28;20036;-32
2021/12/04 08:49:38;;;;;;;2.95;0.65;;;;;;;-148.56;100.00;61375.16;5042657;28;20025;-34
2021/12/04 08:53:02;;;;;;;1.45;0.60;;;;;;;-148.56;100.00;61375.16;5051216;28;20032;-32
2021/12/04 08:56:26;;;;;;;1.85;0.68;;;;;;;-148.56;100.00;61375.16;5051005;28;20407;-29
2021/12/04 08:59:52;;;;;;;2.78;0.80;;;;;;;-148.56;100.00;61375.16;5046808;28;20116;-29
2021/12/04 09:03:17;;;;;;;1.38;0.82;;;;;;;-148.56;100.00;61375.16;5046152;28;20024;-34
2021/12/04 09:06:41;;;;;;;0.90;0.57;;;;;;;-148.56;100.00;61375.16;5044671;28;20597;-32
2021/12/04 09:10:05;;;;;;;1.05;0.60;;;;;;;-148.56;100.00;61375.16;5045472;28;20059;-31
2021/12/04 09:13:29;;;;;;;1.42;0.77;;;;;;;-148.56;100.00;61375.16;5046628;28;20033;-28
2021/12/04 09:16:54;;;;;;;0.90;0.52;;;;;;;-148.56;100.00;61375.16;5044920;28;20085;-28
2021/12/04 09:20:18;;;;;;;1.42;0.73;;;;;;;-148.56;100.00;61375.16;5042231;28;20028;-31
2021/12/04 09:23:50;;;;;;;1.40;0.60;;;;;;;-148.56;100.00;61375.16;5044328;28;20282;-31
2021/12/04 10:00:13;;;;;;;0.82;0.47;;;;;;;-148.56;100.00;61375.16;5043096;28;20039;-32
2021/12/04 10:21:55;;;;;;;1.15;0.50;;;;;;;-148.56;100.00;61375.16;5043037;28;20051;-29
2021/12/04 10:32:55;;;;;;;0.32;0.30;;;;;;;-148.56;100.00;61375.16;5045434;28;20102;-28
2021/12/04 10:36:32;;;;;;;0.50;0.50;;;;;;;-148.56;100.00;61375.16;5042590;28;20411;-35
2021/12/04 10:40:01;;;;;;;0.80;0.50;;;;;;;-148.56;100.00;61375.16;5044426;28;20079;-27
2021/12/04 10:43:26;;;;;;;1.73;0.88;;;;;;;-148.56;100.00;61375.16;5049643;28;20029;-33
2021/12/04 10:46:58;;;;;;;1.35;0.70;;;;;;;-148.56;100.00;61375.16;5046968;28;20537;-32
2021/12/04 10:51:00;;;;;;;0.73;0.40;;;;;;;-148.56;100.00;61375.16;5049769;28;20055;-31
2021/12/04 10:54:27;;;;;;;0.52;0.32;;;;;;;-148.56;100.00;61375.16;5048598;28;20036;-28
2021/12/04 11:28:30;;;;;;;0.35;0.30;;;;;;;-148.56;100.00;61375.16;5046022;28;20028;-33
2021/12/04 11:36:09;;;;;;;1.08;0.45;;;;;;;-148.56;100.00;61375.16;5046814;28;20039;-32
2021/12/04 11:39:41;;;;;;;0.65;0.40;;;;;;;-148.56;100.00;61375.16;5046453;28;20377;-27
2021/12/04 11:43:17;;;;;;;0.50;0.30;;;;;;;-148.56;100.00;61375.16;5050550;28;20483;-29
2021/12/04 11:46:46;;;;;;;0.45;0.40;;;;;;;-148.56;100.00;61375.16;5047653;28;20033;-35
2021/12/04 11:50:29;;;;;;;0.98;0.50;;;;;;;-148.56;100.00;61375.16;5046699;28;20044;-29
2021/12/04 11:53:54;;;;;;;0.57;0.38;;;;;;;-148.56;100.00;61375.16;5047233;28;20032;-28
2021/12/04 11:57:32;;;;;;;0.17;0.15;;;;;;;-148.56;100.00;61375.16;5048665;28;20037;-33
2021/12/04 12:01:25;;;;;;;0.63;0.40;;;;;;;-148.56;100.00;61375.16;5048472;28;20137;-29
2021/12/04 12:04:54;;;;;;;0.73;0.28;;;;;;;-148.56;100.00;61375.16;5047984;28;20043;-31
2021/12/04 12:08:26;;;;;;;0.55;0.38;;;;;;;-148.56;100.00;61375.16;5045451;28;20039;-29
2021/12/04 12:11:52;;;;;;;0.38;0.38;;;;;;;-148.56;100.00;61375.16;5045045;28;20040;-31
2021/12/04 12:15:27;;;;;;;0.45;0.40;;;;;;;-148.56;100.00;61375.16;5048929;28;20461;-29
2021/12/04 12:18:57;;;;;;;0.55;0.30;;;;;;;-148.56;100.00;61375.16;5045789;28;20734;-32
2021/12/04 12:26:29;;;;;;;0.40;0.40;;;;;;;-148.56;100.00;61375.16;5047585;28;20028;-35
2021/12/04 12:37:13;;;;;;;0.95;0.70;;;;;;;-148.56;100.00;61375.16;5045420;28;20028;-31
2021/12/04 12:41:01;;;;;;;0.55;0.30;;;;;;;-148.56;100.00;61375.16;5046689;28;20093;-32
2021/12/04 12:44:31;;;;;;;0.43;0.30;;;;;;;-148.56;100.00;61375.16;5047362;28;20021;-30
2021/12/04 12:48:00;;;;;;;0.32;0.30;;;;;;;-148.56;100.00;61375.16;5045141;28;20033;-29
2021/12/04 12:51:32;;;;;;;0.50;0.50;;;;;;;-148.56;100.00;61375.16;5045539;28;20028;-31
2021/12/04 12:55:01;;;;;;;0.40;0.40;;;;;;;-148.56;100.00;61375.16;5047462;28;20155;-31
2021/12/04 12:58:31;;;;;;;0.50;0.47;;;;;;;-148.56;100.00;61375.16;5040427;28;20040;-31
2021/12/04 13:13:25;;;;;;;0.77;0.55;;;;;;;-148.56;100.00;61375.16;5045900;28;20570;-31
2021/12/04 13:17:08;;;;;;;1.13;0.40;;;;;;;-148.56;100.00;61375.16;5042764;28;20139;-31
2021/12/04 13:20:33;;;;;;;0.57;0.40;;;;;;;-148.56;100.00;61375.16;5044157;28;20190;-31
2021/12/04 13:23:57;;;;;;;0.47;0.38;;;;;;;-148.56;100.00;61375.16;5044117;28;20029;-31
2021/12/04 13:30:53;;;;;;;0.40;0.40;;;;;;;-148.56;100.00;61375.16;5045526;28;20475;-28
2021/12/04 13:34:21;;;;;;;0.75;0.52;;;;;;;-148.56;100.00;61375.16;5044421;28;20029;-32
2021/12/04 13:37:45;;;;;;;0.30;0.30;;;;;;;-148.56;100.00;61375.16;5045682;28;20039;-30
2021/12/04 13:41:11;;;;;;;0.32;0.20;;;;;;;-148.56;100.00;61375.16;5046761;28;20032;-32
2021/12/04 13:44:37;;;;;;;0.43;0.32;;;;;;;-148.56;100.00;61375.16;5045518;28;20103;-29
2021/12/04 13:48:08;;;;;;;0.38;0.30;;;;;;;-148.56;100.00;61375.16;5042698;28;20036;-30
2021/12/04 13:51:32;;;;;;;0.88;0.50;;;;;;;-148.56;100.00;61375.16;5045209;28;20029;-34
2021/12/04 13:54:57;;;;;;;0.30;0.30;;;;;;;-148.56;100.00;61375.16;5045435;28;20611;-29
2021/12/04 13:58:21;;;;;;;0.38;0.38;;;;;;;-148.56;100.00;61375.16;5045172;28;20517;-27
2021/12/04 14:01:45;;;;;;;0.52;0.30;;;;;;;-148.56;100.00;61375.16;5043492;28;20198;-28
2021/12/04 14:05:11;;;;;;;0.22;0.22;;;;;;;-148.56;100.00;61375.16;5045924;28;20028;-32
2021/12/04 14:08:35;;;;;;;0.40;0.38;;;;;;;-148.56;100.00;61375.16;5044806;28;20570;-34
2021/12/04 14:11:59;;;;;;;0.45;0.30;;;;;;;-148.56;100.00;61375.16;5044692;28;20025;-31
2021/12/04 14:15:24;;;;;;;0.13;0.13;;;;;;;-148.56;100.00;61375.16;5044710;28;20555;-30
2021/12/04 14:18:49;;;;;;;1.23;0.50;;;;;;;-148.56;100.00;61375.16;5042081;28;20098;-31
2021/12/04 14:22:16;;;;;;;1.00;0.20;;;;;;;-148.56;100.00;61375.16;5046144;28;20033;-32
2021/12/04 14:25:43;;;;;;;0.38;0.30;;;;;;;-148.56;100.00;61375.16;5045478;28;21638;-31
2021/12/04 14:29:12;;;;;;;0.20;0.20;;;;;;;-148.56;100.00;61375.16;5042894;28;20079;-29
2021/12/04 14:32:45;;;;;;;0.45;0.30;;;;;;;-148.56;100.00;61375.16;5043707;28;20032;-30
2021/12/04 14:36:11;;;;;;;0.40;0.40;;;;;;;-148.56;100.00;61375.16;5046114;28;20017;-32
2021/12/04 14:39:35;;;;;;;0.20;0.20;;;;;;;-148.56;100.00;61375.16;5044160;28;20239;-29
2021/12/04 14:43:08;;;;;;;0.55;0.38;;;;;;;-148.56;100.00;61375.16;5043657;28;20778;-30
2021/12/04 14:46:32;;;;;;;0.35;0.35;;;;;;;-148.56;100.00;61375.16;5045776;28;20024;-31
2021/12/04 14:50:00;;;;;;;0.20;0.20;;;;;;;-148.56;100.00;61375.16;5043460;28;20033;-32
2021/12/04 14:53:24;;;;;;;0.30;0.30;;;;;;;-148.56;100.00;61375.16;5045449;28;20036;-31
2021/12/04 14:56:48;;;;;;;0.45;0.20;;;;;;;-148.56;100.00;61375.16;5041453;28;20035;-32
2021/12/04 15:00:18;;;;;;;0.65;0.20;;;;;;;-148.56;100.00;61375.16;5041680;28;20126;-31
2021/12/04 15:03:50;;;;;;;0.40;0.40;;;;;;;-148.56;100.00;61375.16;5044948;28;20028;-30
2021/12/04 15:07:18;;;;;;;0.60;0.30;;;;;;;-148.56;100.00;61375.16;5045879;28;20831;-28
2021/12/04 15:10:43;;;;;;;0.22;0.22;;;;;;;-148.56;100.00;61375.16;5044337;28;20036;-32
2021/12/04 15:14:20;;;;;;;0.77;0.30;;;;;;;-148.56;100.00;61375.16;5045726;28;20129;-30
2021/12/04 15:17:54;;;;;;;0.85;0.30;;;;;;;-148.56;100.00;61375.16;5042837;28;20892;-31
2021/12/04 15:21:19;;;;;;;0.43;0.30;;;;;;;-148.56;100.00;61375.16;5044035;28;20039;-29
2021/12/04 15:24:44;;;;;;;0.52;0.30;;;;;;;-148.56;100.00;61375.16;5045628;28;20036;-28
2021/12/04 15:28:19;;;;;;;0.30;0.20;;;;;;;-148.56;100.00;61375.16;5046323;28;20372;-31
2021/12/04 15:31:44;;;;;;;0.25;0.25;;;;;;;-148.56;100.00;61375.16;5044887;28;20059;-27
2021/12/04 15:38:54;;;;;;;0.35;0.25;;;;;;;-148.56;100.00;61375.16;5046963;28;20632;-32
2021/12/04 15:42:29;;;;;;;0.20;0.20;;;;;;;-148.56;100.00;61375.16;5047129;28;20028;-31
2021/12/04 15:46:09;;;;;;;0.60;0.30;;;;;;;-148.56;100.00;61375.16;5047100;28;20498;-29
2021/12/04 15:53:18;;;;;;;0.10;0.10;;;;;;;-148.56;100.00;61375.16;5010128;28;20110;-32
2021/12/04 15:56:48;;;;;;;0.40;0.30;;;;;;;-148.56;100.00;61375.16;5047349;28;20037;-29
2021/12/04 16:00:14;;;;;;;0.20;0.20;;;;;;;-148.56;100.00;61375.16;5046765;28;20032;-31
2021/12/04 16:03:39;;;;;;;0.20;0.20;;;;;;;-148.56;100.00;61375.16;5047820;28;20021;-29
2021/12/04 16:07:03;;;;;;;0.57;0.38;;;;;;;-148.56;100.00;61375.16;5047205;28;20029;-33
2021/12/04 16:10:37;;;;;;;0.30;0.30;;;;;;;-148.56;100.00;61375.16;5049459;28;20037;-30
2021/12/04 16:14:03;;;;;;;0.40;0.32;;;;;;;-148.56;100.00;61375.16;5038908;28;20051;-28
2021/12/04 16:17:26;;;;;;;0.40;0.30;;;;;;;-148.56;100.00;61375.16;5046449;28;20452;-26
2021/12/04 16:20:50;;;;;;;0.38;0.20;;;;;;;-148.56;100.00;61375.16;5048247;28;20043;-32
2021/12/04 16:24:14;;;;;;;0.10;0.10;;;;;;;-148.56;100.00;61375.16;5047217;28;20135;-32
2021/12/04 16:27:54;;;;;;;0.30;0.30;;;;;;;-148.56;100.00;61375.16;5045675;28;20510;-29
2021/12/04 16:38:51;;;;;;;0.20;0.20;;;;;;;-148.56;100.00;61375.16;5011990;28;20041;-31
2021/12/04 16:42:15;;;;;;;0.20;0.20;;;;;;;-148.56;100.00;61375.16;5047478;28;20287;-30
2021/12/04 16:45:41;;;;;;;0.28;0.22;;;;;;;-148.56;100.00;61375.16;5047670;28;20028;-32
2021/12/04 16:49:07;;;;;;;0.85;0.17;;;;;;;-148.56;100.00;61375.16;5044929;28;20032;-30
2021/12/04 16:59:57;;;;;;;0.10;0.10;;;;;;;-148.56;100.00;61375.16;5042738;28;20052;-29
2021/12/04 17:03:21;;;;;;;0.10;0.10;;;;;;;-148.56;100.00;61375.16;5043702;28;20044;-27
2021/12/04 17:06:46;;;;;;;0.13;0.10;;;;;;;-148.56;100.00;61375.16;5044569;28;20032;-29
2021/12/04 17:10:11;;;;;;;0.22;0.10;;;;;;;-148.56;100.00;61375.16;5049213;28;20344;-30
2021/12/04 17:13:35;;;;;;;0.20;0.20;;;;;;;-148.56;100.00;61375.16;5047025;28;20029;-29
2021/12/04 17:17:00;;;;;;;0.68;0.30;;;;;;;-148.56;100.00;61375.16;5047021;28;20024;-31
2021/12/04 17:20:24;;;;;;;0.10;0.10;;;;;;;-148.56;100.00;61375.16;5045107;28;20761;-31
2021/12/04 17:23:48;;;;;;;0.20;0.20;;;;;;;-148.56;100.00;61375.16;5046478;28;20032;-32
2021/12/04 17:27:12;;;;;;;0.30;0.22;;;;;;;-148.56;100.00;61375.16;5042479;28;20028;-28
2021/12/04 17:30:37;;;;;;;0.20;0.20;;;;;;;-148.56;100.00;61375.16;5045728;28;20064;-32
2021/12/04 17:34:01;;;;;;;0.50;0.20;;;;;;;-148.56;100.00;61375.16;5046835;28;20089;-30
2021/12/04 17:37:29;;;;;;;0.10;0.10;;;;;;;-148.56;100.00;61375.16;5046506;28;20176;-30
2021/12/04 17:40:55;;;;;;;0.38;0.20;;;;;;;-148.56;100.00;61375.16;5045768;28;20027;-28
2021/12/04 17:44:20;;;;;;;0.20;0.15;;;;;;;-148.56;100.00;61375.16;5047207;28;20028;-30
2021/12/04 17:47:48;;;;;;;0.10;0.10;;;;;;;-148.56;100.00;61375.16;5040808;28;20029;-33
2021/12/04 17:51:14;;;;;;;0.10;0.10;;;;;;;-148.56;100.00;61375.16;5044752;28;20615;-28
2021/12/04 17:54:38;;;;;;;0.20;0.20;;;;;;;-148.56;100.00;61375.16;5046014;28;20466;-32
2021/12/04 17:58:02;;;;;;;0.32;0.20;;;;;;;-148.56;100.00;61375.16;5042844;28;20032;-34
2021/12/04 18:01:40;;;;;;;0.50;0.10;;;;;;;-148.56;100.00;61375.16;5045958;28;20145;-34
2021/12/04 18:05:05;;;;;;;0.25;0.20;;;;;;;-148.56;100.00;61375.16;5045714;28;20036;-30
2021/12/04 18:08:29;;;;;;;0.20;0.20;;;;;;;-148.56;100.00;61375.16;5043664;28;20024;-34
2021/12/04 18:11:55;;;;;;;0.52;0.10;;;;;;;-148.56;100.00;61375.16;5046553;28;20076;-31
2021/12/04 18:15:31;;;;;;;0.03;0.03;;;;;;;-148.56;100.00;61375.16;5045909;28;20029;-30
2021/12/04 18:18:57;;;;;;;0.20;0.20;;;;;;;-148.56;100.00;61375.16;5048039;28;20031;-33
2021/12/04 18:22:21;;;;;;;0.30;0.30;;;;;;;-148.56;100.00;61375.16;5040175;28;20383;-31
2021/12/04 18:25:45;;;;;;;0.10;0.10;;;;;;;-148.56;100.00;61375.16;5046799;28;20093;-30
2021/12/04 18:29:10;;;;;;;0.30;0.20;;;;;;;-148.56;100.00;61375.16;5028726;28;20024;-32
2021/12/04 18:32:34;;;;;;;0.22;0.20;;;;;;;-148.56;100.00;61375.16;5030621;28;20032;-31
2021/12/04 18:35:58;;;;;;;0.15;0.15;;;;;;;-148.56;100.00;61375.16;5032226;28;20108;-27
2021/12/04 18:39:24;;;;;;;0.43;0.20;;;;;;;-148.56;100.00;61375.16;5033997;28;20032;-33
2021/12/04 18:42:48;;;;;;;0.68;0.30;;;;;;;-148.56;100.00;61375.16;5026054;28;20527;-28
2021/12/04 18:46:13;;;;;;;0.10;0.10;;;;;;;-148.56;100.00;61375.16;5037338;28;20730;-29
2021/12/04 18:49:37;;;;;;;0.50;0.30;;;;;;;-148.56;100.00;61375.16;5039403;28;20029;-31
2021/12/04 18:53:01;;;;;;;0.20;0.20;;;;;;;-148.56;100.00;61375.16;5045952;28;20116;-30
2021/12/04 18:56:25;;;;;;;0.20;0.20;;;;;;;-148.56;100.00;61375.16;5042102;28;20091;-30